Time;durP1;ratioP1;P1;durP2;ratioP2;P2;SDS_P1;SDS_P2;PMS_P1;PMS_P2;Temp;Humidity;BMP_temperature;BMP_pressure;BME280_temperature;BME280_humidity;BME280_pressure;Samples;Min_cycle;Max_cycle;Signal;HPM_P1;HPM_P2
2023/09/18 00:01:49;;;;;;;15.65;14.25;;;;;;;18.61;100.00;100391.94;5023270;28;20146;-71
2023/09/18 00:04:14;;;;;;;15.65;14.10;;;;;;;18.62;100.00;100393.63;5025127;28;20017;-71
2023/09/18 00:06:40;;;;;;;14.48;13.20;;;;;;;18.59;100.00;100393.91;5024183;28;20372;-72
2023/09/18 00:09:10;;;;;;;14.35;12.88;;;;;;;18.59;100.00;100394.75;5024871;28;20040;-70
2023/09/18 00:11:36;;;;;;;15.38;13.93;;;;;;;18.57;100.00;100390.53;5024840;28;20495;-71
2023/09/18 00:14:03;;;;;;;14.88;13.45;;;;;;;18.58;100.00;100384.97;5025542;28;20048;-71
2023/09/18 00:16:28;;;;;;;14.80;13.30;;;;;;;18.53;100.00;100386.41;5026585;28;20788;-72
2023/09/18 00:18:53;;;;;;;14.70;13.45;;;;;;;18.53;100.00;100376.47;5003571;28;20060;-72
2023/09/18 00:21:19;;;;;;;15.02;13.63;;;;;;;18.55;100.00;100368.22;5021830;28;20439;-71
2023/09/18 00:23:46;;;;;;;15.50;14.00;;;;;;;18.56;100.00;100368.13;5025864;28;20045;-73
2023/09/18 00:26:11;;;;;;;15.18;13.77;;;;;;;18.53;100.00;100359.44;5025764;28;20076;-72
2023/09/18 00:28:37;;;;;;;15.02;13.80;;;;;;;18.52;100.00;100357.72;5018959;28;20187;-71
2023/09/18 00:31:02;;;;;;;15.60;14.20;;;;;;;18.51;100.00;100346.09;5024709;28;20112;-71
2023/09/18 00:33:27;;;;;;;15.98;14.35;;;;;;;18.50;100.00;100341.72;5025216;28;20022;-71
2023/09/18 00:35:53;;;;;;;15.23;13.82;;;;;;;18.46;100.00;100339.44;5018194;28;20030;-70
2023/09/18 00:38:19;;;;;;;15.38;13.88;;;;;;;18.49;100.00;100329.22;5025716;28;20032;-71
2023/09/18 00:40:44;;;;;;;15.18;13.77;;;;;;;18.50;100.00;100330.09;5025613;28;20024;-73
2023/09/18 00:43:11;;;;;;;16.25;14.75;;;;;;;18.48;100.00;100326.69;5025994;28;20029;-71
2023/09/18 00:45:41;;;;;;;16.00;14.57;;;;;;;18.50;100.00;100327.38;5022918;28;20037;-71
2023/09/18 00:48:07;;;;;;;16.38;14.77;;;;;;;18.50;100.00;100324.69;5023809;28;20102;-71
2023/09/18 00:50:33;;;;;;;15.73;14.13;;;;;;;18.51;100.00;100318.31;5021784;28;20069;-72
2023/09/18 00:53:00;;;;;;;15.43;13.82;;;;;;;18.55;100.00;100327.81;5022414;28;20029;-71
2023/09/18 00:55:27;;;;;;;15.95;14.43;;;;;;;18.54;100.00;100313.47;5024769;28;20040;-72
2023/09/18 00:57:55;;;;;;;13.80;12.57;;;;;;;18.57;100.00;100313.22;5023841;28;20025;-71
2023/09/18 01:00:22;;;;;;;15.55;13.65;;;;;;;18.55;100.00;100304.41;5023232;28;20458;-71
2023/09/18 01:02:47;;;;;;;14.63;13.23;;;;;;;18.52;100.00;100285.84;5024426;28;20029;-72
2023/09/18 01:05:14;;;;;;;14.68;13.23;;;;;;;18.59;100.00;100288.78;5023084;28;20040;-71
2023/09/18 01:07:39;;;;;;;15.23;13.73;;;;;;;18.56;100.00;100278.28;5020316;28;20108;-72
2023/09/18 01:10:05;;;;;;;14.68;13.23;;;;;;;18.60;100.00;100288.69;5018925;28;20471;-71
2023/09/18 01:13:13;;;;;;;13.98;12.43;;;;;;;18.63;100.00;100285.66;5020615;28;20112;-72
2023/09/18 01:15:45;;;;;;;12.98;11.77;;;;;;;18.63;100.00;100282.13;5011705;28;20114;-71
2023/09/18 01:18:10;;;;;;;15.77;12.38;;;;;;;18.62;100.00;100267.81;5021879;28;20593;-74
2023/09/18 01:20:35;;;;;;;14.25;12.95;;;;;;;18.62;100.00;100262.41;5022176;28;20068;-72
2023/09/18 01:23:01;;;;;;;13.85;12.45;;;;;;;18.65;100.00;100272.06;4990272;28;20025;-74
2023/09/18 01:25:26;;;;;;;13.10;11.93;;;;;;;18.64;100.00;100268.53;5022038;28;20068;-71
2023/09/18 01:27:52;;;;;;;15.88;11.93;;;;;;;18.66;100.00;100265.69;5018623;28;20029;-71
2023/09/18 01:30:18;;;;;;;13.98;12.57;;;;;;;18.65;100.00;100258.59;5024051;28;20045;-71
2023/09/18 01:32:49;;;;;;;12.45;11.32;;;;;;;18.64;100.00;100259.56;5024554;28;20030;-71
2023/09/18 01:35:15;;;;;;;12.45;11.35;;;;;;;18.67;100.00;100256.59;5023131;28;20053;-71
2023/09/18 01:37:41;;;;;;;14.13;11.93;;;;;;;18.66;100.00;100260.28;5022090;28;20095;-71
2023/09/18 01:40:08;;;;;;;12.45;11.27;;;;;;;18.66;100.00;100260.28;5024425;28;20530;-72
2023/09/18 01:42:35;;;;;;;11.98;10.88;;;;;;;18.65;100.00;100258.59;5023442;28;20033;-73
2023/09/18 01:45:00;;;;;;;12.48;11.27;;;;;;;18.65;100.00;100258.59;5020590;28;20021;-72
2023/09/18 01:47:29;;;;;;;10.88;9.77;;;;;;;18.67;100.00;100256.59;5021133;28;20032;-71
2023/09/18 01:49:54;;;;;;;11.40;10.23;;;;;;;18.69;100.00;100249.22;5023455;28;20121;-71
2023/09/18 01:52:20;;;;;;;12.82;10.82;;;;;;;18.69;100.00;100253.75;5024004;28;20104;-71
2023/09/18 01:54:45;;;;;;;12.18;10.43;;;;;;;18.69;100.00;100249.22;5025575;28;20026;-71
2023/09/18 01:57:12;;;;;;;13.27;10.30;;;;;;;18.69;100.00;100243.84;5022400;28;20483;-72
2023/09/18 01:59:37;;;;;;;11.93;9.27;;;;;;;18.67;100.00;100243.09;5023041;28;20029;-72
2023/09/18 02:02:09;;;;;;;13.05;9.88;;;;;;;18.69;100.00;100241.13;5020371;28;20075;-71
2023/09/18 02:04:35;;;;;;;11.57;9.05;;;;;;;18.69;100.00;100242.97;5022430;28;20039;-72
2023/09/18 02:07:00;;;;;;;10.57;9.63;;;;;;;18.68;100.00;100234.03;5023938;28;20398;-71
2023/09/18 02:09:26;;;;;;;12.15;9.25;;;;;;;18.68;100.00;100234.03;5019250;28;20033;-73
2023/09/18 02:11:51;;;;;;;10.68;9.40;;;;;;;18.68;100.00;100228.63;5021218;28;20075;-72
2023/09/18 02:14:16;;;;;;;10.13;9.05;;;;;;;18.66;100.00;100226.09;5020168;28;20057;-71
2023/09/18 02:16:43;;;;;;;10.05;8.98;;;;;;;18.64;100.00;100220.00;5025616;28;20507;-72
2023/09/18 02:19:10;;;;;;;10.80;9.57;;;;;;;18.64;100.00;100227.22;5017306;28;20565;-71
2023/09/18 02:21:36;;;;;;;11.23;8.73;;;;;;;18.64;100.00;100224.53;5002265;28;20060;-71
2023/09/18 02:24:02;;;;;;;11.30;8.73;;;;;;;18.60;100.00;100223.09;5023536;28;20107;-73
2023/09/18 02:26:27;;;;;;;11.40;8.57;;;;;;;18.59;100.00;100219.56;5025011;28;20438;-73
2023/09/18 02:28:54;;;;;;;12.07;8.90;;;;;;;18.56;100.00;100206.41;5025347;28;20530;-71
2023/09/18 02:31:20;;;;;;;11.45;8.48;;;;;;;18.58;100.00;100207.09;5002832;28;20385;-71
2023/09/18 02:33:48;;;;;;;9.43;8.23;;;;;;;18.58;100.00;100195.47;5023725;28;20175;-71
2023/09/18 02:36:13;;;;;;;10.73;9.25;;;;;;;18.58;100.00;100190.06;5022305;28;20926;-71
2023/09/18 02:38:39;;;;;;;9.45;8.52;;;;;;;18.55;100.00;100196.59;5024230;28;20029;-70
2023/09/18 02:41:05;;;;;;;9.93;8.93;;;;;;;18.52;100.00;100186.13;5023672;28;20094;-71
2023/09/18 02:43:30;;;;;;;10.77;8.40;;;;;;;18.54;100.00;100199.44;5017752;28;20044;-71
2023/09/18 02:45:55;;;;;;;10.60;8.30;;;;;;;18.54;100.00;100192.22;5022562;28;20504;-71
2023/09/18 02:48:21;;;;;;;9.88;8.77;;;;;;;18.58;100.00;100203.56;5018488;28;20036;-71
2023/09/18 02:50:47;;;;;;;10.00;8.07;;;;;;;18.58;100.00;100177.44;5020103;28;20026;-72
2023/09/18 02:53:23;;;;;;;12.70;8.60;;;;;;;18.57;100.00;100167.66;5006183;28;20029;-73
2023/09/18 02:55:52;;;;;;;10.15;8.13;;;;;;;18.59;100.00;100168.34;5023822;28;20029;-71
2023/09/18 02:58:19;;;;;;;14.15;8.40;;;;;;;18.60;100.00;100166.50;5003909;28;20795;-72
2023/09/18 03:00:49;;;;;;;9.25;7.47;;;;;;;18.60;100.00;100166.50;5021721;28;20037;-72
2023/09/18 03:03:15;;;;;;;11.38;7.95;;;;;;;18.63;100.00;100145.50;5019864;28;20036;-69
2023/09/18 03:05:41;;;;;;;9.98;7.18;;;;;;;18.62;100.00;100151.06;5018776;28;20022;-71
2023/09/18 03:08:08;;;;;;;11.35;7.65;;;;;;;18.62;100.00;100151.06;5019594;28;20269;-72
2023/09/18 03:10:34;;;;;;;13.02;7.97;;;;;;;18.59;100.00;100140.56;5018703;28;20404;-72
2023/09/18 03:13:02;;;;;;;11.07;7.60;;;;;;;18.58;100.00;100144.25;5018547;28;20025;-71
2023/09/18 03:15:27;;;;;;;10.38;6.80;;;;;;;18.59;100.00;100140.56;5018951;28;20025;-71
2023/09/18 03:17:53;;;;;;;10.35;7.30;;;;;;;18.60;100.00;100148.53;5014847;28;20404;-71
2023/09/18 03:20:18;;;;;;;9.40;7.88;;;;;;;18.56;100.00;100147.13;5017431;28;20033;-71
2023/09/18 03:22:43;;;;;;;12.45;7.35;;;;;;;18.57;100.00;100150.66;5019051;28;20022;-71
2023/09/18 03:25:09;;;;;;;13.48;7.32;;;;;;;18.54;100.00;100157.16;5018952;28;20042;-73
2023/09/18 03:27:35;;;;;;;9.98;7.47;;;;;;;18.55;100.00;100155.31;5018774;28;20029;-71
2023/09/18 03:30:00;;;;;;;12.32;8.30;;;;;;;18.57;100.00;100177.59;5018691;28;20040;-71
2023/09/18 03:32:26;;;;;;;12.68;7.65;;;;;;;18.57;100.00;100185.69;5023413;28;20033;-72
2023/09/18 03:34:52;;;;;;;11.77;7.25;;;;;;;18.63;100.00;100177.00;5021927;28;20036;-71
2023/09/18 03:37:17;;;;;;;11.32;7.30;;;;;;;18.66;100.00;100153.31;5023717;28;20478;-72
2023/09/18 03:39:42;;;;;;;11.60;7.60;;;;;;;18.75;100.00;100156.16;5026026;28;20495;-70
2023/09/18 03:42:08;;;;;;;13.40;7.45;;;;;;;18.78;100.00;100151.31;5026973;28;20535;-71
2023/09/18 03:44:33;;;;;;;14.48;7.80;;;;;;;18.81;100.00;100148.34;5026559;28;20156;-71
2023/09/18 03:46:58;;;;;;;13.75;7.03;;;;;;;18.90;100.00;100154.69;5027347;28;20384;-71
2023/09/18 03:49:24;;;;;;;13.45;7.72;;;;;;;18.97;100.00;100152.22;5024699;28;20511;-70
2023/09/18 03:51:49;;;;;;;13.40;7.65;;;;;;;19.02;100.00;100160.72;5001342;28;20452;-72
2023/09/18 03:54:15;;;;;;;14.52;7.57;;;;;;;19.05;100.00;100153.19;5024504;28;20029;-71
2023/09/18 03:56:40;;;;;;;12.48;7.80;;;;;;;19.03;100.00;100141.72;5024381;28;20134;-72
2023/09/18 03:59:06;;;;;;;11.45;8.15;;;;;;;19.01;100.00;100122.09;5025267;28;20712;-71
2023/09/18 04:01:31;;;;;;;14.13;7.88;;;;;;;18.94;100.00;100139.06;5024033;28;20383;-71
2023/09/18 04:03:58;;;;;;;11.02;8.02;;;;;;;18.77;100.00;100137.97;5021290;28;20594;-71
2023/09/18 04:06:24;;;;;;;10.75;7.63;;;;;;;18.67;100.00;100154.16;5024077;28;20072;-71
2023/09/18 04:08:51;;;;;;;13.18;8.77;;;;;;;18.56;100.00;100157.91;5023978;28;20032;-70
2023/09/18 04:11:26;;;;;;;11.10;8.48;;;;;;;18.50;100.00;100169.25;4998865;28;20032;-70
2023/09/18 04:13:51;;;;;;;12.48;8.90;;;;;;;18.45;100.00;100176.91;5025081;28;20029;-71
2023/09/18 04:16:20;;;;;;;11.73;9.18;;;;;;;18.39;100.00;100166.69;5024508;28;20021;-72
2023/09/18 04:18:45;;;;;;;12.25;9.35;;;;;;;18.35;100.00;100155.38;5025036;28;20029;-71
2023/09/18 04:21:10;;;;;;;14.00;9.75;;;;;;;18.31;100.00;100143.19;5023705;28;20556;-70
2023/09/18 04:23:36;;;;;;;14.13;9.43;;;;;;;18.31;100.00;100137.81;5025063;28;20498;-72
2023/09/18 04:26:02;;;;;;;10.63;9.05;;;;;;;18.31;100.00;100131.56;5025557;28;20547;-72
2023/09/18 04:28:27;;;;;;;13.25;9.95;;;;;;;18.29;100.00;100129.00;5025977;28;20026;-71
2023/09/18 04:30:53;;;;;;;11.85;9.27;;;;;;;18.23;100.00;100113.44;5018764;28;20083;-71
2023/09/18 04:33:18;;;;;;;14.93;8.95;;;;;;;18.24;100.00;100123.22;5025274;28;20072;-72
2023/09/18 04:35:44;;;;;;;14.55;9.75;;;;;;;18.24;100.00;100125.91;5016167;28;20037;-71
2023/09/18 04:38:10;;;;;;;11.77;9.85;;;;;;;18.25;100.00;100113.28;5023874;28;20033;-71
2023/09/18 04:40:36;;;;;;;11.43;9.48;;;;;;;18.25;100.00;100097.13;5026226;28;20174;-71
2023/09/18 04:43:04;;;;;;;10.85;9.63;;;;;;;18.23;100.00;100091.91;5022635;28;20064;-73
2023/09/18 04:45:30;;;;;;;10.65;8.65;;;;;;;18.23;100.00;100081.13;5025361;28;20527;-71
2023/09/18 04:47:56;;;;;;;9.20;8.13;;;;;;;18.17;100.00;100074.44;5025694;28;20025;-72
2023/09/18 04:50:22;;;;;;;8.68;7.00;;;;;;;18.17;100.00;100079.00;5025781;28;20117;-72
2023/09/18 04:52:50;;;;;;;7.78;5.80;;;;;;;18.15;100.00;100079.16;5020361;28;20037;-71
2023/09/18 04:55:19;;;;;;;6.70;5.20;;;;;;;18.14;100.00;100071.19;5023821;28;20507;-72
2023/09/18 04:57:45;;;;;;;7.20;4.70;;;;;;;18.19;100.00;100068.09;5024933;28;20029;-71
2023/09/18 05:00:13;;;;;;;7.05;4.95;;;;;;;18.20;100.00;100070.63;5020794;28;20668;-72
2023/09/18 05:02:39;;;;;;;6.03;4.47;;;;;;;18.23;100.00;100077.59;5024996;28;20029;-72
2023/09/18 05:05:04;;;;;;;6.40;4.90;;;;;;;18.28;100.00;100070.75;5024279;28;20032;-71
2023/09/18 05:07:30;;;;;;;6.13;5.05;;;;;;;18.20;100.00;100067.09;5022429;28;20610;-71
2023/09/18 05:09:55;;;;;;;7.15;4.93;;;;;;;18.22;100.00;100074.00;5007862;28;20453;-71
2023/09/18 05:12:22;;;;;;;7.75;4.55;;;;;;;18.26;100.00;100075.41;5020374;28;20146;-71
2023/09/18 05:14:51;;;;;;;5.93;5.07;;;;;;;18.25;100.00;100084.50;5023893;28;20025;-72
2023/09/18 05:17:20;;;;;;;5.68;4.13;;;;;;;18.24;100.00;100084.66;5020261;28;20448;-71
2023/09/18 05:19:45;;;;;;;5.45;4.57;;;;;;;18.26;100.00;100080.81;5024443;28;20025;-72
2023/09/18 05:22:11;;;;;;;6.15;4.30;;;;;;;18.24;100.00;100085.50;5024610;28;20103;-71
2023/09/18 05:24:39;;;;;;;4.82;4.05;;;;;;;18.22;100.00;100068.63;5018551;28;20427;-71
2023/09/18 05:27:07;;;;;;;7.05;4.20;;;;;;;18.22;100.00;100074.00;5023564;28;20083;-71
2023/09/18 05:29:32;;;;;;;5.53;4.18;;;;;;;18.27;100.00;100066.38;5024000;28;20103;-72
2023/09/18 05:31:58;;;;;;;7.07;3.80;;;;;;;18.28;100.00;100078.84;5024012;28;20029;-71
2023/09/18 05:34:23;;;;;;;5.85;3.60;;;;;;;18.30;100.00;100070.59;5024406;28;20544;-71
2023/09/18 05:36:49;;;;;;;5.47;3.58;;;;;;;18.29;100.00;100076.97;5021696;28;20549;-70
2023/09/18 05:39:15;;;;;;;6.97;3.88;;;;;;;18.28;100.00;100086.91;5024810;28;20807;-70
2023/09/18 05:41:41;;;;;;;3.55;3.15;;;;;;;18.31;100.00;100083.94;5023351;28;20048;-71
2023/09/18 05:44:07;;;;;;;5.97;3.17;;;;;;;18.31;100.00;100081.25;5023274;28;20540;-70
2023/09/18 05:46:35;;;;;;;5.45;3.10;;;;;;;18.30;100.00;100093.00;5022408;28;20030;-72
2023/09/18 05:49:01;;;;;;;4.20;2.70;;;;;;;18.35;100.00;100100.63;5023425;28;20316;-72
2023/09/18 05:51:27;;;;;;;4.85;2.67;;;;;;;18.34;100.00;100083.63;5021583;28;20037;-72
2023/09/18 05:53:52;;;;;;;4.82;2.80;;;;;;;18.37;100.00;100095.97;5025272;28;20109;-73
2023/09/18 05:56:18;;;;;;;6.22;3.30;;;;;;;18.37;100.00;100099.50;5004958;28;20534;-73
2023/09/18 05:58:43;;;;;;;4.25;2.45;;;;;;;18.38;100.00;100105.72;5021471;28;20033;-73
2023/09/18 06:01:09;;;;;;;3.42;2.33;;;;;;;18.37;100.00;100101.34;5024455;28;20032;-72
2023/09/18 06:03:35;;;;;;;4.40;2.35;;;;;;;18.40;100.00;100110.00;5021776;28;20389;-72
2023/09/18 06:06:05;;;;;;;4.85;2.65;;;;;;;18.39;100.00;100118.19;5021947;28;20192;-72
2023/09/18 06:08:31;;;;;;;3.05;2.30;;;;;;;18.39;100.00;100129.84;5005808;28;20160;-72
2023/09/18 06:10:57;;;;;;;3.50;2.42;;;;;;;18.41;100.00;100132.41;5020983;28;20395;-71
2023/09/18 06:13:27;;;;;;;3.70;2.38;;;;;;;18.40;100.00;100123.47;5015003;28;20053;-72
2023/09/18 06:15:54;;;;;;;4.40;2.53;;;;;;;18.40;100.00;100118.06;5021915;28;20025;-71
2023/09/18 06:18:20;;;;;;;5.38;2.60;;;;;;;18.39;100.00;100113.69;5023998;28;20026;-73
2023/09/18 06:20:46;;;;;;;2.83;2.47;;;;;;;18.32;100.00;100120.66;5024374;28;20625;-72
2023/09/18 06:23:13;;;;;;;5.30;2.33;;;;;;;18.33;100.00;100125.03;5024770;28;20025;-73
2023/09/18 06:25:39;;;;;;;3.28;2.10;;;;;;;18.33;100.00;100141.19;5023584;28;20486;-73
2023/09/18 06:28:05;;;;;;;3.83;2.40;;;;;;;18.34;100.00;100134.81;5002908;28;20057;-72
2023/09/18 06:30:32;;;;;;;3.25;2.20;;;;;;;18.31;100.00;100136.94;5023389;28;20159;-72
2023/09/18 06:32:58;;;;;;;5.55;2.47;;;;;;;18.34;100.00;100136.66;5022046;28;20112;-72
2023/09/18 06:35:23;;;;;;;3.00;2.13;;;;;;;18.32;100.00;100139.50;5023250;28;20551;-71
2023/09/18 06:37:49;;;;;;;3.33;2.20;;;;;;;18.37;100.00;100144.47;5024739;28;20030;-72
2023/09/18 06:40:14;;;;;;;2.53;2.17;;;;;;;18.36;100.00;100162.47;5024611;28;20033;-73
2023/09/18 06:42:39;;;;;;;4.25;2.20;;;;;;;18.38;100.00;100167.69;5021606;28;20029;-72
2023/09/18 06:45:06;;;;;;;3.45;2.35;;;;;;;18.46;100.00;100161.59;5022558;28;20025;-72
2023/09/18 06:47:33;;;;;;;5.18;2.40;;;;;;;18.48;100.00;100173.09;5019397;28;20144;-72
2023/09/18 06:49:59;;;;;;;2.88;2.20;;;;;;;18.52;100.00;100161.88;5021325;28;20025;-72
2023/09/18 06:52:26;;;;;;;3.55;2.10;;;;;;;18.55;100.00;100168.81;5019648;28;20017;-71
2023/09/18 06:54:52;;;;;;;3.50;2.10;;;;;;;18.61;100.00;100179.00;5013582;28;20494;-73
2023/09/18 06:57:21;;;;;;;2.65;2.10;;;;;;;18.63;100.00;100169.78;5019543;28;20502;-72
2023/09/18 06:59:49;;;;;;;2.40;1.90;;;;;;;18.67;100.00;100181.13;5021046;28;20029;-71
2023/09/18 07:02:15;;;;;;;3.08;2.10;;;;;;;18.70;100.00;100193.50;5020883;28;20032;-72
2023/09/18 07:04:44;;;;;;;3.50;2.13;;;;;;;18.72;100.00;100186.09;5021579;28;20177;-71
2023/09/18 07:07:13;;;;;;;2.55;1.90;;;;;;;18.68;100.00;100169.31;5017928;28;20025;-71
2023/09/18 07:09:41;;;;;;;3.08;2.00;;;;;;;18.64;100.00;100171.50;5019812;28;20045;-73
2023/09/18 07:12:09;;;;;;;3.08;2.58;;;;;;;18.67;100.00;100183.81;5015788;28;20040;-76
2023/09/18 07:14:34;;;;;;;4.57;2.22;;;;;;;18.68;100.00;100188.19;5018379;28;20041;-72
2023/09/18 07:17:01;;;;;;;4.57;2.47;;;;;;;18.67;100.00;100191.91;5018717;28;20017;-71
2023/09/18 07:19:26;;;;;;;3.85;1.80;;;;;;;18.67;100.00;100192.75;5016460;28;20022;-72
2023/09/18 07:21:52;;;;;;;2.97;2.10;;;;;;;18.66;100.00;100198.28;5017916;28;20261;-72
2023/09/18 07:24:20;;;;;;;3.85;1.90;;;;;;;18.67;100.00;100199.97;5018839;28;20554;-72
2023/09/18 07:26:47;;;;;;;3.55;2.00;;;;;;;18.72;100.00;100202.25;5013479;28;20041;-72
2023/09/18 07:29:14;;;;;;;2.50;2.10;;;;;;;18.73;100.00;100214.75;5015786;28;20053;-72
2023/09/18 07:31:43;;;;;;;4.65;2.05;;;;;;;18.78;100.00;100205.25;5020154;28;20048;-71
2023/09/18 07:34:09;;;;;;;3.05;2.20;;;;;;;18.82;100.00;100212.03;5019265;28;20279;-72
2023/09/18 07:36:35;;;;;;;2.75;2.28;;;;;;;18.86;100.00;100220.69;5015912;28;20292;-72
2023/09/18 07:39:00;;;;;;;3.22;2.00;;;;;;;18.88;100.00;100205.19;5017285;28;20033;-71
2023/09/18 07:41:26;;;;;;;5.32;2.15;;;;;;;18.83;100.00;100205.66;5016957;28;20017;-72
2023/09/18 07:43:51;;;;;;;2.20;1.85;;;;;;;18.85;100.00;100206.38;5020569;28;20422;-71
2023/09/18 07:46:19;;;;;;;5.15;2.00;;;;;;;18.89;100.00;100206.91;5002178;28;20376;-72
2023/09/18 07:48:45;;;;;;;3.90;2.10;;;;;;;19.02;100.00;100217.34;5016328;28;20381;-71
2023/09/18 07:51:11;;;;;;;2.22;1.90;;;;;;;19.15;100.00;100201.72;5003279;28;20087;-71
2023/09/18 07:53:37;;;;;;;2.78;1.80;;;;;;;19.22;100.00;100213.56;5020319;28;20031;-71
2023/09/18 07:56:04;;;;;;;2.55;1.80;;;;;;;19.17;100.00;100199.69;5023420;28;20018;-71
2023/09/18 07:58:30;;;;;;;3.35;2.25;;;;;;;19.15;100.00;100207.94;5006344;28;20046;-72
2023/09/18 08:00:57;;;;;;;2.50;1.70;;;;;;;19.21;100.00;100213.75;5024353;28;20080;-72
2023/09/18 08:03:22;;;;;;;3.55;2.15;;;;;;;19.22;100.00;100210.88;5023794;28;20376;-70
2023/09/18 08:05:55;;;;;;;4.07;1.83;;;;;;;19.22;100.00;100205.50;5004196;28;20033;-74
2023/09/18 08:08:23;;;;;;;4.35;1.80;;;;;;;19.25;100.00;100207.91;5023995;28;20108;-70
2023/09/18 08:10:49;;;;;;;5.47;2.10;;;;;;;19.25;100.00;100207.91;5022264;28;20026;-71
2023/09/18 08:13:16;;;;;;;3.88;2.00;;;;;;;19.29;100.00;100205.75;5023107;28;20116;-72
2023/09/18 08:15:41;;;;;;;5.03;1.90;;;;;;;19.26;100.00;100206.88;5016457;28;20108;-72
2023/09/18 08:18:07;;;;;;;4.05;2.10;;;;;;;19.40;100.00;100217.19;5021564;28;20448;-72
2023/09/18 08:20:33;;;;;;;3.40;1.80;;;;;;;19.73;100.00;100224.84;5020336;28;20041;-70
2023/09/18 08:23:01;;;;;;;2.65;1.90;;;;;;;19.90;100.00;100219.47;5023852;28;20442;-72
2023/09/18 08:25:27;;;;;;;3.10;1.90;;;;;;;20.42;100.00;100223.31;5018206;28;20041;-71
2023/09/18 08:27:52;;;;;;;4.20;1.77;;;;;;;20.80;99.97;100233.75;5022482;28;20087;-71
2023/09/18 08:30:21;;;;;;;3.47;1.98;;;;;;;21.13;97.04;100223.16;5020431;28;20162;-71
2023/09/18 08:32:47;;;;;;;6.72;2.65;;;;;;;21.07;94.63;100235.47;5000164;28;20451;-74
2023/09/18 08:35:13;;;;;;;4.72;1.80;;;;;;;20.79;96.44;100245.59;5018264;28;20060;-71
2023/09/18 08:37:41;;;;;;;3.97;1.98;;;;;;;20.72;98.16;100244.53;5020904;28;20037;-71
2023/09/18 08:40:10;;;;;;;4.55;1.90;;;;;;;20.83;96.53;100241.56;5022988;28;20033;-71
2023/09/18 08:42:39;;;;;;;3.28;1.92;;;;;;;20.67;97.32;100257.69;5019115;28;20029;-72
2023/09/18 08:45:09;;;;;;;4.07;2.10;;;;;;;20.68;98.18;100258.53;5020583;28;20566;-72
2023/09/18 08:47:36;;;;;;;2.10;1.85;;;;;;;21.06;95.29;100252.69;5018223;28;20515;-72
2023/09/18 08:50:01;;;;;;;4.28;2.20;;;;;;;21.23;94.58;100259.03;5023734;28;20484;-73
2023/09/18 08:52:27;;;;;;;5.85;2.00;;;;;;;21.13;93.58;100261.03;5023358;28;20037;-72
2023/09/18 08:54:54;;;;;;;3.08;1.95;;;;;;;21.11;94.27;100255.78;5019949;28;20079;-73
2023/09/18 08:57:20;;;;;;;3.40;2.13;;;;;;;21.28;94.03;100253.16;5018200;28;20024;-70
2023/09/18 08:59:52;;;;;;;3.15;1.95;;;;;;;21.43;92.46;100243.44;5023032;28;20040;-70
2023/09/18 09:02:20;;;;;;;2.70;1.70;;;;;;;21.28;92.78;100242.34;5021068;28;20026;-70
2023/09/18 09:04:46;;;;;;;3.90;1.73;;;;;;;22.32;88.08;100251.00;5022282;28;20636;-72
2023/09/18 09:07:11;;;;;;;3.15;1.77;;;;;;;23.33;83.70;100245.13;5022186;28;20021;-71
2023/09/18 09:09:37;;;;;;;4.35;2.38;;;;;;;24.18;78.88;100251.66;5001573;28;20128;-72
2023/09/18 09:12:02;;;;;;;4.53;2.03;;;;;;;24.95;74.60;100243.34;5022750;28;20392;-72
2023/09/18 09:14:28;;;;;;;3.17;1.90;;;;;;;25.44;72.68;100259.19;5023251;28;20021;-71
2023/09/18 09:16:55;;;;;;;3.08;1.92;;;;;;;25.94;68.27;100246.63;5022972;28;20324;-72
2023/09/18 09:19:32;;;;;;;3.67;2.00;;;;;;;26.42;68.53;100257.81;5015230;28;20095;-72
2023/09/18 09:22:00;;;;;;;2.25;1.90;;;;;;;26.44;66.75;100264.81;4995713;28;20025;-72
2023/09/18 09:24:38;;;;;;;2.78;1.90;;;;;;;26.63;67.76;100276.97;4999968;28;20120;-72
2023/09/18 09:27:04;;;;;;;4.50;1.90;;;;;;;26.49;65.82;100262.34;5011888;28;20033;-71
2023/09/18 09:29:29;;;;;;;5.68;2.20;;;;;;;26.39;64.42;100260.97;5014494;28;20298;-71
2023/09/18 09:31:58;;;;;;;3.42;1.63;;;;;;;26.04;65.80;100277.16;5020084;28;20043;-70
2023/09/18 09:34:29;;;;;;;4.65;2.30;;;;;;;26.57;63.60;100273.13;5014326;28;20579;-73
2023/09/18 09:36:57;;;;;;;4.28;1.80;;;;;;;27.23;61.21;100272.00;4995990;28;20253;-71
2023/09/18 09:39:24;;;;;;;4.65;1.85;;;;;;;28.01;58.93;100267.97;4992754;28;20427;-72
2023/09/18 09:41:51;;;;;;;3.30;1.73;;;;;;;28.74;55.89;100264.53;5023800;28;20593;-72
2023/09/18 09:44:17;;;;;;;7.32;1.92;;;;;;;28.88;53.77;100287.28;5018537;28;20025;-71
2023/09/18 09:46:51;;;;;;;3.13;1.75;;;;;;;27.80;56.95;100279.91;5013289;28;20114;-73
2023/09/18 09:49:19;;;;;;;4.28;2.10;;;;;;;26.65;59.71;100274.03;5017570;28;20037;-71
2023/09/18 09:51:45;;;;;;;4.95;1.75;;;;;;;25.96;61.49;100264.50;5017416;28;20033;-72
2023/09/18 09:54:12;;;;;;;3.70;2.28;;;;;;;26.35;61.50;100262.41;5019942;28;20025;-72
2023/09/18 09:56:50;;;;;;;2.80;1.67;;;;;;;27.59;58.90;100254.50;5020322;28;20030;-72
2023/09/18 09:59:18;;;;;;;3.30;1.70;;;;;;;27.52;58.75;100257.22;5019294;28;20033;-72
2023/09/18 10:01:50;;;;;;;3.70;1.80;;;;;;;27.63;56.70;100281.28;5020023;28;20120;-72
2023/09/18 10:04:17;;;;;;;3.33;1.67;;;;;;;26.75;59.33;100278.13;5020893;28;20025;-71
2023/09/18 10:06:48;;;;;;;4.60;2.03;;;;;;;25.69;61.80;100289.72;4997779;28;20029;-72
2023/09/18 10:09:15;;;;;;;5.32;2.17;;;;;;;25.28;65.23;100296.47;5019144;28;20495;-71
2023/09/18 10:11:44;;;;;;;3.42;2.00;;;;;;;24.73;65.86;100305.81;5015175;28;20076;-72
2023/09/18 10:14:18;;;;;;;7.25;2.33;;;;;;;24.02;68.99;100302.38;5013956;28;20022;-71
2023/09/18 10:16:54;;;;;;;4.50;2.10;;;;;;;23.50;72.70;100313.81;5014586;28;20057;-72
2023/09/18 10:19:33;;;;;;;4.03;2.05;;;;;;;23.08;74.69;100320.34;4995934;28;20029;-72
2023/09/18 10:22:16;;;;;;;3.30;2.17;;;;;;;23.48;74.81;100314.97;5014327;28;20440;-71
2023/09/18 10:24:46;;;;;;;3.60;2.30;;;;;;;23.80;73.53;100304.03;5021315;28;20057;-73
2023/09/18 10:27:13;;;;;;;4.28;2.03;;;;;;;23.81;73.72;100307.59;5021309;28;20087;-71
2023/09/18 10:29:41;;;;;;;4.07;2.10;;;;;;;23.55;73.95;100281.53;5013134;28;20033;-71
2023/09/18 10:32:07;;;;;;;5.13;2.22;;;;;;;23.40;74.80;100299.56;5017146;28;20053;-72
2023/09/18 10:34:33;;;;;;;3.15;2.42;;;;;;;23.52;75.35;100302.75;5013692;28;20037;-72
2023/09/18 10:37:00;;;;;;;4.07;2.22;;;;;;;24.06;74.39;100303.72;5018674;28;20033;-71
2023/09/18 10:39:28;;;;;;;5.90;2.20;;;;;;;24.23;72.25;100314.50;5017809;28;20495;-73
2023/09/18 10:41:56;;;;;;;3.33;2.35;;;;;;;23.72;73.03;100298.63;5020939;28;20032;-72
2023/09/18 10:44:22;;;;;;;4.10;2.20;;;;;;;23.47;76.10;100297.00;5015131;28;20025;-70
2023/09/18 10:46:52;;;;;;;3.88;2.70;;;;;;;23.20;77.21;100292.81;5017361;28;20063;-71
2023/09/18 10:49:21;;;;;;;2.60;2.40;;;;;;;23.06;77.47;100306.06;5015980;28;20100;-72
2023/09/18 10:51:53;;;;;;;4.00;2.40;;;;;;;23.04;77.95;100302.69;5017458;28;20033;-72
2023/09/18 10:54:24;;;;;;;6.60;2.70;;;;;;;23.05;77.66;100292.69;5020023;28;20099;-73
2023/09/18 10:56:51;;;;;;;6.13;2.75;;;;;;;23.09;76.28;100294.03;5018717;28;20033;-73
2023/09/18 10:59:17;;;;;;;3.65;2.63;;;;;;;23.30;75.27;100282.63;5017736;28;20053;-72
2023/09/18 11:01:44;;;;;;;3.35;2.35;;;;;;;25.10;69.31;100293.28;4997794;28;20483;-73
2023/09/18 11:04:10;;;;;;;5.20;2.60;;;;;;;26.53;63.62;100281.91;5018879;28;20033;-74
2023/09/18 11:07:21;;;;;;;3.55;2.30;;;;;;;28.56;60.90;100295.28;5020578;28;20032;-72
2023/09/18 11:09:46;;;;;;;4.05;2.10;;;;;;;28.24;55.13;100294.97;4958768;28;20141;-72
2023/09/18 11:12:15;;;;;;;4.80;2.13;;;;;;;26.81;57.57;100285.53;4973938;28;20628;-74
2023/09/18 11:14:40;;;;;;;6.30;2.95;;;;;;;25.91;62.06;100287.91;4974257;28;20035;-71